LSMA METAR and TAF | Updated Today

LSMA METAR

Alpnach Air Base

Observation time: 11 min. ago

LSMA 052050Z AUTO 20002KT 4400NDV -RASN BR BKN004 OVC010 01/00 Q1034 RMK

Need help? Read our tutorial on how to read METARs or read the parsed version below.

Alpnach Air Base (LSMA) METAR

  • Weather conditions on Sun, 05 Feb 2023 20:50:00 +0000 (11 min. ago):
  • Present conditions: Light rain snow; mist
  • Clouds: Broken sky at 122 meters; overcast sky at 305 meters
  • Visibility:
  • Wind: 200 degrees at 2 knots
  • Temperature: 1 celsius
  • Dew point: 0 celsius
  • Pressure: 1034 millibars
  • Remarks: None


Useful to know...